createdAt,value
2022-11-01T00:02:04.589Z,95793.91
2022-11-01T00:04:31.499Z,95787.81
2022-11-01T00:06:58.290Z,95796.13
2022-11-01T00:09:25.232Z,95792.72
2022-11-01T00:11:52.225Z,95802.66
2022-11-01T00:14:20.095Z,95793.91
2022-11-01T00:16:47.027Z,95791.75
2022-11-01T00:19:14.285Z,95797.44
2022-11-01T00:21:41.135Z,95778.09
2022-11-01T00:24:08.668Z,95787.75
2022-11-01T00:26:37.033Z,95797.97
2022-11-01T00:29:04.153Z,95789.81
2022-11-01T00:31:30.968Z,95792.41
2022-11-01T00:33:59.034Z,95786.81
2022-11-01T00:36:25.887Z,95799.53
2022-11-01T00:38:52.971Z,95795.16
2022-11-01T00:41:21.128Z,95787.00
2022-11-01T00:43:48.977Z,95796.69
2022-11-01T00:46:16.380Z,95784.19
2022-11-01T00:48:43.438Z,95792.09
2022-11-01T00:51:10.214Z,95790.72
2022-11-01T00:53:37.069Z,95794.00
2022-11-01T00:56:06.303Z,95804.22
2022-11-01T00:58:33.566Z,95802.91
2022-11-01T01:01:00.797Z,95800.69
2022-11-01T01:03:27.879Z,95785.75
2022-11-01T01:05:55.054Z,95794.19
2022-11-01T01:08:22.588Z,95798.00
2022-11-01T01:10:50.186Z,95801.81
2022-11-01T01:13:17.458Z,95797.59
2022-11-01T01:15:44.815Z,95798.28
2022-11-01T01:18:12.053Z,95791.66
2022-11-01T01:20:39.154Z,95800.66
2022-11-01T01:23:06.620Z,95805.41
2022-11-01T01:25:33.476Z,95807.88
2022-11-01T01:28:00.610Z,95799.31
2022-11-01T01:30:27.717Z,95804.50
2022-11-01T01:32:54.520Z,95804.34
2022-11-01T01:35:21.329Z,95799.19
2022-11-01T01:37:48.176Z,95800.94
2022-11-01T01:40:15.001Z,95797.69
2022-11-01T01:42:43.266Z,95801.22
2022-11-01T01:45:30.633Z,95808.88
2022-11-01T01:48:08.122Z,95806.41
2022-11-01T01:50:39.911Z,95809.69
2022-11-01T01:53:25.209Z,95811.31
2022-11-01T01:56:01.124Z,95807.81
2022-11-01T01:58:35.209Z,95812.41
2022-11-01T02:01:02.170Z,95806.97
2022-11-01T02:03:33.086Z,95807.63
2022-11-01T02:06:09.277Z,95809.41
2022-11-01T02:08:38.133Z,95803.97
2022-11-01T02:11:06.925Z,95814.59
2022-11-01T02:13:34.259Z,95806.41
2022-11-01T02:16:37.738Z,95814.59
2022-11-01T02:19:19.643Z,95811.31
2022-11-01T02:22:05.013Z,95812.69
2022-11-01T02:24:31.829Z,95813.63
2022-11-01T02:27:21.989Z,95823.56
2022-11-01T02:29:52.094Z,95818.25
2022-11-01T02:32:27.620Z,95823.03
2022-11-01T02:35:04.318Z,95827.13
2022-11-01T02:37:36.458Z,95820.97
2022-11-01T02:40:11.966Z,95824.78
2022-11-01T02:42:44.715Z,95823.56
2022-11-01T02:45:29.128Z,95830.34
2022-11-01T02:48:00.100Z,95833.63
2022-11-01T02:50:30.778Z,95840.13
2022-11-01T02:52:59.076Z,95843.91
2022-11-01T02:55:34.328Z,95837.81
2022-11-01T02:58:07.089Z,95835.47
2022-11-01T03:00:36.447Z,95836.03
2022-11-01T03:03:06.216Z,95841.88
2022-11-01T03:05:57.604Z,95839.28
2022-11-01T03:08:30.455Z,95832.16
2022-11-01T03:11:09.612Z,95844.81
2022-11-01T03:14:05.740Z,95848.09
2022-11-01T03:16:36.584Z,95853.69
2022-11-01T03:19:35.271Z,95845.69
2022-11-01T03:22:37.340Z,95848.78
2022-11-01T03:25:41.027Z,95846.75
2022-11-01T03:28:15.627Z,95847.97
2022-11-01T03:30:49.245Z,95848.53
2022-11-01T03:33:18.565Z,95855.56
2022-11-01T03:35:50.254Z,95850.38
2022-11-01T03:38:23.310Z,95851.13
2022-11-01T03:40:56.594Z,95841.56
2022-11-01T03:43:26.713Z,95845.78
2022-11-01T03:45:54.954Z,95846.41
2022-11-01T03:48:21.746Z,95854.28
2022-11-01T03:50:50.996Z,95850.34
2022-11-01T03:53:18.299Z,95854.81
2022-11-01T03:55:45.613Z,95842.16
2022-11-01T03:58:12.638Z,95849.22
2022-11-01T04:00:42.343Z,95852.75
2022-11-01T04:03:10.234Z,95856.03
2022-11-01T04:05:38.864Z,95847.47
2022-11-01T04:08:07.286Z,95853.44
2022-11-01T04:10:34.673Z,95846.00
2022-11-01T04:13:02.153Z,95851.66
2022-11-01T04:15:48.337Z,95847.81
2022-11-01T04:21:30.398Z,95847.22
2022-11-01T04:23:57.270Z,95835.06
2022-11-01T04:26:24.572Z,95841.84
2022-11-01T04:28:57.673Z,95840.63
2022-11-01T04:31:27.369Z,95842.44
2022-11-01T04:33:55.597Z,95838.53
2022-11-01T04:36:22.530Z,95845.31
2022-11-01T04:38:55.861Z,95846.28
2022-11-01T04:41:24.355Z,95852.25
2022-11-01T04:43:53.741Z,95852.50
2022-11-01T04:46:20.649Z,95854.25
2022-11-01T04:48:47.465Z,95860.13
2022-11-01T04:51:14.374Z,95849.34
2022-11-01T04:53:41.228Z,95849.84
2022-11-01T04:56:11.329Z,95848.63
2022-11-01T04:58:43.002Z,95859.50
2022-11-01T05:01:15.052Z,95855.28
2022-11-01T05:03:44.039Z,95867.78
2022-11-01T05:06:10.862Z,95866.13
2022-11-01T05:08:37.722Z,95870.69
2022-11-01T05:11:04.647Z,95866.00
2022-11-01T05:13:31.694Z,95869.97
2022-11-01T05:16:18.393Z,95867.78
2022-11-01T05:18:45.462Z,95882.06
2022-11-01T05:21:12.406Z,95881.25
2022-11-01T05:23:39.392Z,95884.28
2022-11-01T05:26:06.219Z,95878.63
2022-11-01T05:28:33.113Z,95885.56
2022-11-01T05:30:59.988Z,95888.47
2022-11-01T05:33:26.809Z,95884.28
2022-11-01T05:35:53.700Z,95881.72
2022-11-01T05:38:20.703Z,95885.88
2022-11-01T05:40:47.579Z,95893.50
2022-11-01T05:43:15.298Z,95887.22
2022-11-01T05:45:42.080Z,95897.47
2022-11-01T05:48:09.489Z,95893.00
2022-11-01T05:50:36.382Z,95898.78
2022-11-01T05:53:10.361Z,95899.38
2022-11-01T05:55:38.005Z,95900.88
2022-11-01T05:58:05.846Z,95904.41
2022-11-01T06:00:33.911Z,95897.88
2022-11-01T06:03:04.098Z,95901.97
2022-11-01T06:05:31.778Z,95910.94
2022-11-01T06:08:01.551Z,95907.53
2022-11-01T06:10:28.918Z,95911.78
2022-11-01T06:12:55.808Z,95906.59
2022-11-01T06:15:23.714Z,95913.91
2022-11-01T06:18:00.323Z,95916.94
2022-11-01T06:20:29.780Z,95917.59
2022-11-01T06:22:57.731Z,95902.34
2022-11-01T06:25:25.857Z,95924.00
2022-11-01T06:27:53.710Z,95925.88
2022-11-01T06:30:21.343Z,95917.59
2022-11-01T06:32:48.189Z,95923.41
2022-11-01T06:35:15.007Z,95921.34
2022-11-01T06:37:41.962Z,95922.81
2022-11-01T06:40:09.574Z,95921.28
2022-11-01T06:42:36.422Z,95915.97
2022-11-01T06:45:03.852Z,95913.22
2022-11-01T06:47:30.686Z,95919.75
2022-11-01T06:49:57.640Z,95920.13
2022-11-01T06:52:24.446Z,95917.78
2022-11-01T06:54:51.251Z,95917.09
2022-11-01T06:57:18.476Z,95920.84
2022-11-01T06:59:45.283Z,95926.00
2022-11-01T07:02:14.582Z,95912.75
2022-11-01T07:04:41.838Z,95915.13
2022-11-01T07:07:08.693Z,95916.19
2022-11-01T07:09:36.027Z,95906.34
2022-11-01T07:12:02.804Z,95915.03
2022-11-01T07:14:31.110Z,95904.22
2022-11-01T07:16:58.005Z,95905.09
2022-11-01T07:19:24.844Z,95907.78
2022-11-01T07:21:51.647Z,95910.75
2022-11-01T07:24:18.477Z,95910.22
2022-11-01T07:26:45.631Z,95906.97
2022-11-01T07:29:12.556Z,95906.56
2022-11-01T07:31:39.377Z,95908.00
2022-11-01T07:34:06.360Z,95915.75
2022-11-01T07:36:33.339Z,95910.84
2022-11-01T07:39:00.513Z,95906.78
2022-11-01T07:41:27.679Z,95908.44
2022-11-01T07:43:54.504Z,95914.53
2022-11-01T07:46:21.321Z,95910.50
2022-11-01T07:48:48.149Z,95915.06
2022-11-01T07:51:16.273Z,95911.50
2022-11-01T07:53:43.090Z,95903.66
2022-11-01T07:56:10.002Z,95906.38
2022-11-01T07:58:36.954Z,95904.03
2022-11-01T08:01:03.877Z,95896.59
2022-11-01T08:03:31.035Z,95895.88
2022-11-01T08:05:57.906Z,95900.84
2022-11-01T08:08:24.692Z,95899.47
2022-11-01T08:10:51.706Z,95897.50
2022-11-01T08:13:23.755Z,95889.97
2022-11-01T08:15:51.748Z,95890.84
2022-11-01T08:18:21.609Z,95884.03
2022-11-01T08:20:48.897Z,95889.34
2022-11-01T08:23:16.059Z,95888.19
2022-11-01T08:25:42.921Z,95889.34
2022-11-01T08:28:13.381Z,95882.16
2022-11-01T08:30:41.938Z,95878.72
2022-11-01T08:33:09.448Z,95882.09
2022-11-01T08:35:36.724Z,95869.84
2022-11-01T08:38:04.168Z,95871.66
2022-11-01T08:40:32.741Z,95866.78
2022-11-01T08:43:00.131Z,95864.56
2022-11-01T08:45:27.521Z,95869.41
2022-11-01T08:47:59.415Z,95859.03
2022-11-01T08:50:27.106Z,95869.16
2022-11-01T08:52:53.975Z,95863.16
2022-11-01T08:55:21.728Z,95873.31
2022-11-01T08:57:49.177Z,95864.38
2022-11-01T09:00:16.970Z,95862.47
2022-11-01T09:02:43.864Z,95854.63
2022-11-01T09:05:10.821Z,95846.66
2022-11-01T09:07:38.620Z,95847.19
2022-11-01T09:10:06.548Z,95847.94
2022-11-01T09:12:33.552Z,95849.38
2022-11-01T09:15:00.373Z,95847.34
2022-11-01T09:17:27.293Z,95843.88
2022-11-01T09:19:54.115Z,95843.75
2022-11-01T09:22:21.066Z,95839.72
2022-11-01T09:24:47.940Z,95841.16
2022-11-01T09:27:14.953Z,95830.88
2022-11-01T09:29:44.229Z,95847.97
2022-11-01T09:32:13.433Z,95837.63
2022-11-01T09:34:40.240Z,95832.53
2022-11-01T09:37:07.132Z,95827.91
2022-11-01T09:39:33.934Z,95821.47
2022-11-01T09:42:11.181Z,95812.41
2022-11-01T09:44:43.319Z,95806.53
2022-11-01T09:47:17.168Z,95820.09
2022-11-01T09:49:48.447Z,95822.72
2022-11-01T09:52:33.525Z,95805.13
2022-11-01T09:55:00.430Z,95804.28
2022-11-01T09:57:42.422Z,95796.31
2022-11-01T10:00:21.746Z,95803.34
2022-11-01T10:03:04.041Z,95798.38
2022-11-01T10:05:52.445Z,95805.75
2022-11-01T10:08:44.397Z,95806.94
2022-11-01T10:11:46.330Z,95798.28
2022-11-01T10:14:31.700Z,95790.22
2022-11-01T10:17:14.859Z,95782.69
2022-11-01T10:19:46.958Z,95782.28
2022-11-01T10:22:23.973Z,95775.31
2022-11-01T10:25:22.013Z,95774.91
2022-11-01T10:28:33.666Z,95770.91
2022-11-01T10:31:06.781Z,95765.69
2022-11-01T10:34:09.141Z,95773.72
2022-11-01T10:36:40.300Z,95772.75
2022-11-01T10:39:55.096Z,95765.91
2022-11-01T10:42:23.349Z,95753.03
2022-11-01T10:44:55.505Z,95754.06
2022-11-01T10:47:24.509Z,95748.56
2022-11-01T10:50:06.602Z,95748.13
2022-11-01T10:52:57.500Z,95751.91
2022-11-01T10:55:45.795Z,95739.88
2022-11-01T10:58:25.020Z,95734.34
2022-11-01T11:00:53.227Z,95740.03
2022-11-01T11:03:24.477Z,95733.97
2022-11-01T11:05:53.381Z,95729.97
2022-11-01T11:08:24.129Z,95727.13
2022-11-01T11:10:51.475Z,95726.09
2022-11-01T11:13:26.249Z,95725.84
2022-11-01T11:15:56.914Z,95715.31
2022-11-01T11:18:37.784Z,95714.53
2022-11-01T11:21:12.233Z,95713.25
2022-11-01T11:23:46.211Z,95704.50
2022-11-01T11:26:17.806Z,95707.25
2022-11-01T11:28:57.553Z,95708.84
2022-11-01T11:31:34.310Z,95707.81
2022-11-01T11:34:29.150Z,95710.00
2022-11-01T11:36:57.136Z,95700.38
2022-11-01T11:39:37.618Z,95705.47
2022-11-01T11:42:24.626Z,95694.09
2022-11-01T11:44:56.934Z,95691.72
2022-11-01T11:47:25.398Z,95683.88
2022-11-01T11:49:54.323Z,95692.16
2022-11-01T11:52:28.770Z,95687.06
2022-11-01T11:54:56.799Z,95673.88
2022-11-01T11:57:26.954Z,95688.03
2022-11-01T11:59:55.513Z,95678.16
2022-11-01T12:02:25.130Z,95680.38
2022-11-01T12:05:00.659Z,95676.44
2022-11-01T12:07:27.880Z,95668.84
2022-11-01T12:09:56.349Z,95664.00
2022-11-01T12:12:27.453Z,95665.97
2022-11-01T12:14:55.872Z,95661.34
2022-11-01T12:17:44.417Z,95657.00
2022-11-01T12:20:14.603Z,95658.38
2022-11-01T12:22:47.265Z,95654.44
2022-11-01T12:25:20.083Z,95650.66
2022-11-01T12:28:14.179Z,95645.91
2022-11-01T12:30:43.501Z,95638.00
2022-11-01T12:33:32.667Z,95642.19
2022-11-01T12:36:00.144Z,95636.03
2022-11-01T12:38:55.699Z,95638.53
2022-11-01T12:41:42.213Z,95636.72
2022-11-01T12:44:24.673Z,95643.75
2022-11-01T12:46:58.260Z,95629.50
2022-11-01T12:49:41.073Z,95634.22
2022-11-01T12:52:29.554Z,95634.84
2022-11-01T12:54:56.329Z,95637.13
2022-11-01T12:57:23.997Z,95628.50
2022-11-01T12:59:51.294Z,95634.69
2022-11-01T13:02:43.665Z,95631.91
2022-11-01T13:05:15.805Z,95627.69
2022-11-01T13:08:08.986Z,95621.19
2022-11-01T13:10:48.222Z,95621.03
2022-11-01T13:13:46.932Z,95631.03
2022-11-01T13:16:22.166Z,95624.47
2022-11-01T13:18:54.606Z,95622.84
2022-11-01T13:21:24.091Z,95626.78
2022-11-01T13:24:21.149Z,95623.69
2022-11-01T13:27:06.300Z,95614.56
2022-11-01T13:29:42.434Z,95627.75
2022-11-01T13:32:30.306Z,95626.44
2022-11-01T13:35:29.222Z,95622.34
2022-11-01T13:38:03.034Z,95624.63
2022-11-01T13:40:50.757Z,95622.31
2022-11-01T13:43:27.008Z,95614.28
2022-11-01T13:46:24.641Z,95620.38
2022-11-01T13:49:06.364Z,95625.97
2022-11-01T13:51:56.930Z,95613.50
2022-11-01T13:54:29.750Z,95615.66
2022-11-01T13:57:01.859Z,95609.53
2022-11-01T13:59:55.301Z,95594.31
2022-11-01T14:02:28.452Z,95608.47
2022-11-01T14:05:00.290Z,95599.97
2022-11-01T14:07:33.935Z,95611.47
2022-11-01T14:10:02.404Z,95608.25
2022-11-01T14:12:35.322Z,95601.03
2022-11-01T14:15:26.301Z,95595.44
2022-11-01T14:17:53.290Z,95599.97
2022-11-01T14:20:26.037Z,95592.50
2022-11-01T14:22:54.846Z,95597.59
2022-11-01T14:25:24.621Z,95602.34
2022-11-01T14:28:34.390Z,95597.88
2022-11-01T14:31:01.375Z,95599.69
2022-11-01T14:33:28.199Z,95592.69
2022-11-01T14:35:57.727Z,95594.88
2022-11-01T14:38:34.227Z,95588.03
2022-11-01T14:41:02.196Z,95596.66
2022-11-01T14:43:51.160Z,95600.00
2022-11-01T14:46:25.133Z,95591.97
2022-11-01T14:49:01.896Z,95598.81
2022-11-01T14:51:35.395Z,95605.59
2022-11-01T14:54:29.303Z,95607.97
2022-11-01T14:56:58.356Z,95604.31
2022-11-01T14:59:26.893Z,95596.56
2022-11-01T15:02:02.373Z,95602.72
2022-11-01T15:04:33.068Z,95607.19
2022-11-01T15:07:00.909Z,95595.84
2022-11-01T15:09:30.644Z,95572.13
2022-11-01T15:12:07.497Z,95606.28
2022-11-01T15:14:44.722Z,95595.22
2022-11-01T15:17:23.302Z,95601.50
2022-11-01T15:19:55.427Z,95597.13
2022-11-01T15:22:28.170Z,95612.81
2022-11-01T15:25:01.489Z,95598.47
2022-11-01T15:27:36.259Z,95609.88
2022-11-01T15:30:04.230Z,95612.91
2022-11-01T15:32:35.285Z,95612.25
2022-11-01T15:35:16.413Z,95617.75
2022-11-01T15:37:50.037Z,95612.81
2022-11-01T15:40:30.892Z,95612.06
2022-11-01T15:43:02.913Z,95619.66
2022-11-01T15:45:35.990Z,95619.88
2022-11-01T15:48:10.630Z,95628.38
2022-11-01T15:50:39.674Z,95623.13
2022-11-01T15:53:11.663Z,95632.03
2022-11-01T15:55:45.400Z,95619.03
2022-11-01T15:58:25.316Z,95635.13
2022-11-01T16:00:57.620Z,95631.47
2022-11-01T16:03:42.177Z,95635.03
2022-11-01T16:06:20.679Z,95649.53
2022-11-01T16:09:17.229Z,95644.44
2022-11-01T16:11:45.069Z,95649.44
2022-11-01T16:14:27.693Z,95649.44
2022-11-01T16:16:59.602Z,95643.56
2022-11-01T16:19:48.274Z,95648.19
2022-11-01T16:22:41.484Z,95654.97
2022-11-01T16:25:10.119Z,95659.34
2022-11-01T16:28:10.912Z,95652.03
2022-11-01T16:30:51.793Z,95655.16
2022-11-01T16:33:25.298Z,95658.19
2022-11-01T16:36:05.491Z,95657.38
2022-11-01T16:38:38.344Z,95665.16
2022-11-01T16:41:14.369Z,95667.53
2022-11-01T16:43:41.450Z,95664.25
2022-11-01T16:46:08.245Z,95657.34
2022-11-01T16:48:50.398Z,95672.09
2022-11-01T16:51:18.500Z,95668.25
2022-11-01T16:53:45.921Z,95666.19
2022-11-01T16:56:48.810Z,95666.69
2022-11-01T16:59:16.303Z,95673.31
2022-11-01T17:01:46.172Z,95675.66
2022-11-01T17:04:14.122Z,95676.44
2022-11-01T17:06:41.106Z,95676.50
2022-11-01T17:09:14.039Z,95681.91
2022-11-01T17:11:45.049Z,95680.03
2022-11-01T17:14:15.169Z,95678.63
2022-11-01T17:16:44.798Z,95675.31
2022-11-01T17:19:22.751Z,95679.84
2022-11-01T17:21:51.363Z,95681.22
2022-11-01T17:24:21.454Z,95677.50
2022-11-01T17:26:49.660Z,95683.91
2022-11-01T17:29:16.496Z,95680.22
2022-11-01T17:31:43.383Z,95674.75
2022-11-01T17:34:11.367Z,95677.47
2022-11-01T17:36:41.375Z,95685.84
2022-11-01T17:39:10.195Z,95685.84
2022-11-01T17:41:37.442Z,95681.72
2022-11-01T17:44:04.358Z,95687.13
2022-11-01T17:46:31.290Z,95685.06
2022-11-01T17:48:58.193Z,95687.19
2022-11-01T17:51:25.035Z,95689.81
2022-11-01T17:53:56.053Z,95682.72
2022-11-01T17:56:24.272Z,95681.13
2022-11-01T17:58:53.835Z,95691.84
2022-11-01T18:01:21.924Z,95694.59
2022-11-01T18:03:49.309Z,95694.03
2022-11-01T18:06:16.794Z,95697.25
2022-11-01T18:08:47.846Z,95702.88
2022-11-01T18:11:52.948Z,95700.69
2022-11-01T18:14:39.941Z,95691.91
2022-11-01T18:17:23.991Z,95701.44
2022-11-01T18:20:18.018Z,95702.81
2022-11-01T18:22:57.112Z,95697.31
2022-11-01T18:25:27.107Z,95707.44
2022-11-01T18:27:58.202Z,95699.03
2022-11-01T18:30:25.892Z,95709.97
2022-11-01T18:32:52.661Z,95699.41
2022-11-01T18:35:31.725Z,95704.66
2022-11-01T18:38:14.064Z,95694.00
2022-11-01T18:40:47.714Z,95714.84
2022-11-01T18:43:14.560Z,95711.78
2022-11-01T18:45:58.820Z,95715.88
2022-11-01T18:48:31.709Z,95720.41
2022-11-01T18:51:05.536Z,95717.66
2022-11-01T18:53:33.994Z,95720.41
2022-11-01T18:56:19.760Z,95721.88
2022-11-01T18:58:46.670Z,95730.50
2022-11-01T19:01:33.444Z,95726.00
2022-11-01T19:04:09.943Z,95735.75
2022-11-01T19:06:36.969Z,95725.81
2022-11-01T19:09:21.383Z,95728.47
2022-11-01T19:11:54.349Z,95734.97
2022-11-01T19:14:23.064Z,95744.88
2022-11-01T19:16:50.568Z,95742.91
2022-11-01T19:19:20.168Z,95735.09
2022-11-01T19:21:47.613Z,95742.75
2022-11-01T19:24:36.323Z,95735.41
2022-11-01T19:27:12.761Z,95734.94
2022-11-01T19:29:39.786Z,95710.03
2022-11-01T19:32:13.662Z,95736.41
2022-11-01T19:34:41.577Z,95741.94
2022-11-01T19:37:37.488Z,95735.72
2022-11-01T19:40:13.012Z,95739.63
2022-11-01T19:42:39.932Z,95748.75
2022-11-01T19:45:09.761Z,95741.72
2022-11-01T19:47:46.280Z,95744.81
2022-11-01T19:50:23.877Z,95739.13
2022-11-01T19:52:53.105Z,95738.78
2022-11-01T19:55:39.680Z,95741.06
2022-11-01T19:58:27.966Z,95746.28
2022-11-01T20:01:24.162Z,95749.69
2022-11-01T20:03:56.805Z,95756.66
2022-11-01T20:06:30.506Z,95750.63
2022-11-01T20:09:03.548Z,95752.91
2022-11-01T20:11:31.901Z,95751.59
2022-11-01T20:13:58.887Z,95755.00
2022-11-01T20:16:25.748Z,95750.28
2022-11-01T20:18:52.556Z,95751.59
2022-11-01T20:21:19.373Z,95760.38
2022-11-01T20:23:46.189Z,95754.19
2022-11-01T20:26:13.015Z,95744.53
2022-11-01T20:28:40.013Z,95757.72
2022-11-01T20:31:06.918Z,95755.88
2022-11-01T20:33:34.025Z,95765.78
2022-11-01T20:36:00.915Z,95759.25
2022-11-01T20:38:27.717Z,95758.44
2022-11-01T20:40:55.281Z,95758.78
2022-11-01T20:43:22.236Z,95756.34
2022-11-01T20:45:49.046Z,95766.59
2022-11-01T20:48:15.812Z,95762.81
2022-11-01T20:50:42.852Z,95750.28
2022-11-01T20:53:09.976Z,95760.16
2022-11-01T20:55:36.779Z,95760.94
2022-11-01T20:58:04.224Z,95766.28
2022-11-01T21:00:31.976Z,95765.94
2022-11-01T21:02:58.838Z,95767.41
2022-11-01T21:05:27.733Z,95774.69
2022-11-01T21:08:05.880Z,95772.38
2022-11-01T21:10:35.356Z,95770.69
2022-11-01T21:13:03.684Z,95769.97
2022-11-01T21:15:37.819Z,95762.81
2022-11-01T21:18:07.696Z,95754.97
2022-11-01T21:20:36.483Z,95762.91
2022-11-01T21:23:21.373Z,95760.81
2022-11-01T21:26:00.536Z,95752.00
2022-11-01T21:28:44.759Z,95767.91
2022-11-01T21:31:14.617Z,95767.97
2022-11-01T21:33:43.907Z,95765.81
2022-11-01T21:36:34.082Z,95760.59
2022-11-01T21:39:10.401Z,95766.44
2022-11-01T21:41:44.907Z,95766.44
2022-11-01T21:44:49.677Z,95761.03
2022-11-01T21:47:27.651Z,95760.78
2022-11-01T21:49:54.482Z,95763.69
2022-11-01T21:52:21.447Z,95743.03
2022-11-01T21:54:48.994Z,95754.31
2022-11-01T21:57:16.987Z,95757.53
2022-11-01T21:59:44.218Z,95753.63
2022-11-01T22:02:13.430Z,95752.59
2022-11-01T22:04:40.806Z,95752.34
2022-11-01T22:07:09.284Z,95759.50
2022-11-01T22:09:39.009Z,95751.09
2022-11-01T22:12:07.028Z,95751.78
2022-11-01T22:14:34.644Z,95749.84
2022-11-01T22:17:01.532Z,95753.03
2022-11-01T22:19:28.440Z,95746.22
2022-11-01T22:21:55.288Z,95742.44
2022-11-01T22:24:23.679Z,95745.84
2022-11-01T22:26:51.005Z,95750.09
2022-11-01T22:29:17.934Z,95745.84
2022-11-01T22:31:44.828Z,95759.84
2022-11-01T22:34:11.638Z,95751.09
2022-11-01T22:36:40.606Z,95753.31
2022-11-01T22:39:15.465Z,95752.00
2022-11-01T22:41:43.893Z,95757.47
2022-11-01T22:44:16.530Z,95748.50
2022-11-01T22:46:59.334Z,95748.66
2022-11-01T22:49:40.705Z,95753.69
2022-11-01T22:52:39.447Z,95742.13
2022-11-01T22:55:12.778Z,95752.63
2022-11-01T22:57:48.521Z,95739.31
2022-11-01T23:00:39.454Z,95747.75
2022-11-01T23:03:29.053Z,95747.75
2022-11-01T23:05:59.754Z,95736.88
2022-11-01T23:08:29.662Z,95746.41
2022-11-01T23:10:57.522Z,95737.22
2022-11-01T23:13:57.702Z,95744.56
2022-11-01T23:16:34.003Z,95717.53
2022-11-01T23:19:03.654Z,95730.72
2022-11-01T23:21:30.508Z,95727.75
2022-11-01T23:23:57.545Z,95734.53
2022-11-01T23:26:24.494Z,95733.22
2022-11-01T23:28:56.449Z,95724.81
2022-11-01T23:31:28.332Z,95729.16
2022-11-01T23:33:56.020Z,95742.41
2022-11-01T23:36:26.059Z,95742.41
2022-11-01T23:39:01.961Z,95738.09
2022-11-01T23:41:53.317Z,95737.69
2022-11-01T23:44:37.355Z,95737.69
2022-11-01T23:47:09.857Z,95745.09
2022-11-01T23:49:36.742Z,95746.31
2022-11-01T23:52:30.396Z,95744.81
2022-11-01T23:54:57.516Z,95741.94
2022-11-01T23:57:24.659Z,95732.84
2022-11-01T23:59:52.494Z,95736.78
